Newburgh, IN (47630)

10:36 PM CDT on March 28, 2015 (GMT -0500)
Summer Creek | | Change Station
CLOSE
Current Station
Personal Weather Station
Location: Newburgh, IN
Elevation: 387 ft
Nearby Weather Stations

Elev 387 ft 37.97 °N, 87.37 °W | Updated 22 seconds ago

Clear
Clear
29.4 °F
Feels Like 29 °F
N
0.0
Wind Variable Wind from NNW
Gusts 0.0 mph

Today
High -- | Low -- °F
--% Chance of Precip.
Yesterday
High -- | Low -- °F
Precip. -- in
6:41 AM 7:08 PM
Waxing Gibbous, 68% visible
Pressure 30.37 in
Visibility 10.0 miles
Clouds Clear
Windchill 29 °F
Dew Point 22 °F
Humidity 74%
Rainfall 0.00 in
Snow Depth Not available.
UV 0 out of 12
Pollen 7.10 out of 12
Air Quality Not available.
Flu Activity Not available.
METAR KEVV 290254Z 00000KT 10SM CLR 01/M06 A3035 RMK AO2 SLP283 T00111056 53016

More Conditions Fewer Conditions

Pressure 30.37 in
Visibility 10.0 miles
Clouds Clear
Windchill 29 °F
Dew Point 22 °F
Humidity 74%
Rainfall 0.00 in
Snow Depth Not available.
UV 0 out of 12
Pollen 7.10 out of 12
Air Quality Not available.
Flu Activity Not available.
METAR KEVV 290254Z 00000KT 10SM CLR 01/M06 A3035 RMK AO2 SLP283 T00111056 53016

More Conditions Fewer Conditions

10-Day Weather Forecast

Almanac

Astronomy

Mar. 28, 2015 Rise Set
Actual Time
Civil Twilight
Nautical Twilight
Astronomical Twilight
Moon
Length of Visible Light
Length of Day
Tomorrow will be .
, % of the Moon is Illuminated

Today's Extremes

State Highs State Lows

Community

WunderPhotos

Upload Photos

1,809,175 photos uploaded!

WunderBlogs® & News

Nearby

Air Quality

  Air Quality AQ Index Pollutant
Not available.

Snow Depth

Station Depth Elevation

Earthquake Activity

City Distance Mag. Time & Date
Minimum magnitude displayed is 2.5.

Coastal Water Temperatures

Place Temperature

Stations

Nearby Weather Stations

Station Location Temp. Windchill Dew Point Humidity Wind Precip. Elev Updated Type